createdAt,value
2023-05-23T00:01:31.665Z,59.10
2023-05-23T00:04:00.137Z,59.10
2023-05-23T00:06:30.423Z,59.20
2023-05-23T00:08:59.238Z,59.30
2023-05-23T00:11:29.149Z,59.20
2023-05-23T00:14:01.075Z,59.10
2023-05-23T00:16:29.717Z,59.10
2023-05-23T00:18:59.512Z,59.40
2023-05-23T00:21:30.819Z,59.70
2023-05-23T00:23:59.968Z,60.10
2023-05-23T00:26:30.182Z,61.50
2023-05-23T00:28:59.268Z,62.60
2023-05-23T00:31:27.728Z,63.50
2023-05-23T00:33:56.633Z,64.40
2023-05-23T00:36:25.201Z,65.40
2023-05-23T00:38:55.809Z,66.30
2023-05-23T00:41:26.156Z,67.00
2023-05-23T00:43:54.425Z,67.70
2023-05-23T00:46:22.945Z,68.60
2023-05-23T00:48:51.843Z,69.20
2023-05-23T00:51:20.604Z,69.50
2023-05-23T00:53:49.648Z,69.80
2023-05-23T00:56:21.090Z,70.50
2023-05-23T00:58:49.655Z,71.10
2023-05-23T01:01:19.118Z,71.70
2023-05-23T01:03:50.386Z,72.20
2023-05-23T01:06:21.777Z,73.10
2023-05-23T01:08:52.960Z,73.00
2023-05-23T01:11:34.297Z,73.40
2023-05-23T01:14:11.023Z,73.70
2023-05-23T01:16:48.793Z,73.80
2023-05-23T01:19:33.858Z,74.20
2023-05-23T01:22:13.282Z,74.40
2023-05-23T01:24:52.019Z,74.80
2023-05-23T01:27:32.843Z,74.70
2023-05-23T01:30:13.125Z,75.40
2023-05-23T01:32:42.949Z,75.40
2023-05-23T01:35:13.339Z,75.90
2023-05-23T01:37:43.314Z,76.10
2023-05-23T01:40:12.786Z,76.80
2023-05-23T01:42:43.414Z,76.70
2023-05-23T01:45:14.282Z,76.80
2023-05-23T01:47:42.961Z,77.00
2023-05-23T01:50:12.774Z,77.90
2023-05-23T01:52:44.225Z,77.30
2023-05-23T01:55:23.313Z,78.00
2023-05-23T01:57:58.471Z,77.90
2023-05-23T02:00:30.642Z,77.80
2023-05-23T02:03:02.147Z,78.10
2023-05-23T02:05:37.086Z,78.10
2023-05-23T02:08:08.024Z,78.20
2023-05-23T02:10:42.971Z,78.80
2023-05-23T02:13:14.220Z,78.60
2023-05-23T02:15:44.246Z,78.70
2023-05-23T02:18:20.230Z,78.50
2023-05-23T02:20:54.813Z,78.60
2023-05-23T02:23:24.049Z,78.50
2023-05-23T02:25:55.168Z,78.80
2023-05-23T02:28:28.875Z,78.80
2023-05-23T02:31:02.035Z,79.10
2023-05-23T02:33:33.298Z,79.10
2023-05-23T02:36:02.248Z,79.40
2023-05-23T02:38:31.923Z,79.00
2023-05-23T02:41:00.939Z,79.30
2023-05-23T02:43:29.690Z,79.50
2023-05-23T02:46:02.625Z,79.60
2023-05-23T02:48:36.388Z,79.70
2023-05-23T02:51:05.584Z,80.10
2023-05-23T02:53:34.132Z,79.80
2023-05-23T02:56:09.056Z,79.90
2023-05-23T02:58:37.656Z,80.10
2023-05-23T03:01:08.463Z,80.10
2023-05-23T03:03:37.305Z,80.10
2023-05-23T03:06:14.936Z,80.30
2023-05-23T03:08:43.673Z,79.90
2023-05-23T03:11:14.549Z,80.30
2023-05-23T03:13:45.845Z,80.60
2023-05-23T03:16:16.142Z,80.50
2023-05-23T03:18:44.470Z,80.80
2023-05-23T03:21:26.723Z,80.90
2023-05-23T03:23:55.896Z,81.00
2023-05-23T03:26:25.403Z,81.20
2023-05-23T03:29:01.314Z,81.00
2023-05-23T03:31:31.338Z,80.80
2023-05-23T03:33:59.857Z,81.40
2023-05-23T03:36:29.031Z,81.30
2023-05-23T03:39:02.615Z,81.10
2023-05-23T03:41:37.454Z,81.20
2023-05-23T03:44:06.405Z,80.90
2023-05-23T03:46:36.905Z,81.30
2023-05-23T03:49:05.478Z,81.30
2023-05-23T03:51:35.641Z,81.40
2023-05-23T03:54:04.610Z,81.50
2023-05-23T03:56:39.785Z,81.50
2023-05-23T03:59:08.235Z,82.00
2023-05-23T04:01:39.670Z,81.60
2023-05-23T04:04:08.316Z,81.60
2023-05-23T04:06:39.763Z,81.70
2023-05-23T04:09:08.261Z,81.60
2023-05-23T04:11:41.879Z,81.80
2023-05-23T04:14:15.023Z,82.00
2023-05-23T04:16:45.332Z,81.60
2023-05-23T04:19:17.513Z,81.20
2023-05-23T04:21:46.004Z,81.70
2023-05-23T04:24:17.247Z,81.10
2023-05-23T04:26:46.044Z,81.10
2023-05-23T04:29:15.512Z,81.20
2023-05-23T04:31:59.064Z,81.50
2023-05-23T04:34:39.767Z,81.40
2023-05-23T04:37:09.875Z,81.40
2023-05-23T04:39:38.579Z,81.10
2023-05-23T04:42:25.079Z,81.20
2023-05-23T04:45:19.676Z,81.00
2023-05-23T04:48:08.422Z,81.00
2023-05-23T04:50:41.203Z,81.00
2023-05-23T04:53:09.886Z,81.00
2023-05-23T04:55:48.127Z,81.00
2023-05-23T04:58:22.622Z,81.20
2023-05-23T05:00:51.387Z,81.50
2023-05-23T05:03:25.179Z,81.10
2023-05-23T05:06:02.156Z,81.80
2023-05-23T05:08:31.694Z,80.80
2023-05-23T05:11:06.760Z,80.50
2023-05-23T05:13:44.304Z,80.20
2023-05-23T05:16:16.399Z,80.30
2023-05-23T05:18:53.932Z,80.30
2023-05-23T05:21:23.090Z,80.40
2023-05-23T05:23:52.618Z,79.90
2023-05-23T05:26:21.744Z,79.60
2023-05-23T05:28:51.628Z,79.40
2023-05-23T05:31:20.380Z,79.40
2023-05-23T05:33:50.744Z,79.20
2023-05-23T05:36:19.248Z,79.30
2023-05-23T05:38:48.036Z,79.00
2023-05-23T05:41:22.864Z,79.00
2023-05-23T05:43:53.883Z,79.10
2023-05-23T05:46:23.665Z,79.10
2023-05-23T05:48:53.776Z,78.80
2023-05-23T05:51:23.056Z,78.70
2023-05-23T05:53:51.634Z,78.80
2023-05-23T05:56:19.945Z,78.70
2023-05-23T05:58:49.793Z,79.10
2023-05-23T06:01:18.479Z,79.20
2023-05-23T06:03:47.010Z,79.40
2023-05-23T06:06:16.933Z,79.30
2023-05-23T06:08:45.438Z,79.60
2023-05-23T06:11:18.093Z,79.70
2023-05-23T06:13:46.723Z,79.80
2023-05-23T06:16:16.200Z,79.80
2023-05-23T06:18:46.793Z,79.60
2023-05-23T06:21:16.795Z,79.70
2023-05-23T06:23:45.134Z,79.60
2023-05-23T06:26:13.464Z,79.40
2023-05-23T06:28:41.807Z,79.60
2023-05-23T06:31:11.085Z,79.30
2023-05-23T06:33:39.555Z,79.20
2023-05-23T06:36:08.291Z,79.20
2023-05-23T06:38:38.135Z,79.20
2023-05-23T06:41:08.120Z,79.10
2023-05-23T06:43:37.699Z,79.20
2023-05-23T06:46:24.654Z,79.30
2023-05-23T06:49:02.651Z,79.30
2023-05-23T06:51:41.630Z,79.00
2023-05-23T06:54:14.605Z,78.50
2023-05-23T06:56:44.251Z,78.50
2023-05-23T06:59:12.895Z,78.60
2023-05-23T07:01:41.538Z,78.30
2023-05-23T07:04:09.858Z,77.90
2023-05-23T07:06:40.036Z,77.70
2023-05-23T07:09:09.459Z,77.60
2023-05-23T07:11:41.242Z,77.40
2023-05-23T07:14:10.639Z,77.10
2023-05-23T07:16:43.820Z,76.70
2023-05-23T07:19:12.675Z,76.60
2023-05-23T07:21:46.244Z,76.50
2023-05-23T07:24:17.587Z,76.60
2023-05-23T07:26:47.280Z,76.40
2023-05-23T07:29:16.473Z,76.50
2023-05-23T07:31:47.383Z,76.30
2023-05-23T07:34:16.008Z,76.20
2023-05-23T07:36:54.769Z,76.30
2023-05-23T07:39:25.913Z,75.90
2023-05-23T07:41:56.757Z,75.20
2023-05-23T07:44:25.463Z,75.00
2023-05-23T07:46:55.013Z,74.80
2023-05-23T07:49:24.105Z,74.80
2023-05-23T07:51:52.665Z,74.70
2023-05-23T07:54:23.548Z,74.80
2023-05-23T07:56:57.593Z,74.60
2023-05-23T07:59:26.987Z,74.50
2023-05-23T08:01:56.314Z,74.40
2023-05-23T08:04:27.021Z,73.90
2023-05-23T08:07:05.056Z,73.30
2023-05-23T08:09:48.171Z,72.70
2023-05-23T08:12:21.584Z,72.50
2023-05-23T08:14:53.901Z,72.50
2023-05-23T08:17:27.266Z,72.00
2023-05-23T08:20:00.574Z,71.50
2023-05-23T08:22:30.532Z,71.60
2023-05-23T08:24:59.650Z,71.50
2023-05-23T08:27:32.019Z,71.10
2023-05-23T08:30:09.938Z,71.20
2023-05-23T08:32:39.190Z,71.10
2023-05-23T08:35:08.712Z,71.30
2023-05-23T08:37:40.332Z,71.00
2023-05-23T08:40:14.550Z,70.80
2023-05-23T08:42:51.544Z,70.40
2023-05-23T08:45:20.916Z,70.50
2023-05-23T08:47:50.220Z,70.40
2023-05-23T08:50:23.698Z,69.90
2023-05-23T08:52:57.016Z,70.20
2023-05-23T08:55:28.668Z,70.20
2023-05-23T08:58:01.098Z,70.20
2023-05-23T09:00:48.403Z,69.80
2023-05-23T09:03:16.913Z,69.40
2023-05-23T09:06:19.053Z,69.20
2023-05-23T09:08:48.137Z,68.80
2023-05-23T09:11:18.768Z,68.20
2023-05-23T09:13:49.932Z,68.70
2023-05-23T09:16:21.261Z,68.90
2023-05-23T09:18:53.136Z,69.00
2023-05-23T09:21:25.488Z,69.00
2023-05-23T09:24:07.289Z,68.70
2023-05-23T09:26:36.278Z,68.40
2023-05-23T09:29:08.553Z,68.80
2023-05-23T09:31:37.267Z,68.90
2023-05-23T09:34:07.313Z,69.40
2023-05-23T09:36:36.575Z,69.80
2023-05-23T09:39:06.874Z,69.90
2023-05-23T09:41:35.486Z,70.10
2023-05-23T09:44:09.984Z,70.60
2023-05-23T09:46:39.387Z,70.60
2023-05-23T09:49:19.045Z,71.00
2023-05-23T09:51:58.980Z,71.40
2023-05-23T09:54:27.589Z,71.90
2023-05-23T09:56:57.757Z,71.70
2023-05-23T09:59:30.164Z,71.60
2023-05-23T10:02:07.502Z,71.60
2023-05-23T10:04:38.346Z,71.30
2023-05-23T10:07:14.999Z,70.70
2023-05-23T10:09:47.093Z,70.60
2023-05-23T10:12:46.421Z,70.90
2023-05-23T10:15:18.082Z,70.50
2023-05-23T10:18:05.472Z,70.50
2023-05-23T10:20:39.977Z,70.30
2023-05-23T10:23:09.713Z,70.30
2023-05-23T10:25:39.268Z,70.60
2023-05-23T10:28:07.762Z,70.10
2023-05-23T10:30:37.618Z,69.30
2023-05-23T10:33:08.768Z,68.30
2023-05-23T10:35:51.686Z,67.80
2023-05-23T10:38:31.919Z,67.40
2023-05-23T10:41:07.043Z,67.00
2023-05-23T10:43:46.172Z,66.70
2023-05-23T10:46:16.967Z,66.60
2023-05-23T10:48:46.052Z,66.60
2023-05-23T10:51:15.633Z,66.50
2023-05-23T10:53:45.393Z,66.50
2023-05-23T10:56:23.452Z,65.80
2023-05-23T10:58:58.718Z,64.50
2023-05-23T11:01:28.850Z,64.70
2023-05-23T11:03:57.525Z,65.00
2023-05-23T11:06:35.273Z,64.60
2023-05-23T11:09:07.512Z,64.40
2023-05-23T11:12:03.048Z,64.10
2023-05-23T11:14:54.854Z,63.60
2023-05-23T11:17:35.461Z,63.50
2023-05-23T11:20:07.779Z,63.50
2023-05-23T11:22:37.228Z,63.70
2023-05-23T11:25:10.201Z,63.90
2023-05-23T11:27:39.800Z,63.40
2023-05-23T11:30:10.966Z,63.20
2023-05-23T11:32:41.047Z,63.50
2023-05-23T11:35:12.337Z,62.90
2023-05-23T11:37:41.286Z,62.60
2023-05-23T11:40:38.563Z,62.10
2023-05-23T11:43:08.861Z,61.30
2023-05-23T11:45:42.391Z,62.10
2023-05-23T11:48:13.955Z,62.80
2023-05-23T11:50:47.516Z,63.10
2023-05-23T11:53:20.009Z,62.30
2023-05-23T11:55:54.630Z,61.70
2023-05-23T11:58:24.169Z,61.70
2023-05-23T12:00:55.231Z,61.90
2023-05-23T12:03:28.495Z,62.30
2023-05-23T12:06:18.291Z,62.80
2023-05-23T12:08:49.738Z,63.30
2023-05-23T12:11:45.503Z,62.80
2023-05-23T12:14:37.396Z,62.70
2023-05-23T12:17:26.233Z,63.70
2023-05-23T12:26:34.765Z,63.80
2023-05-23T12:29:17.682Z,64.30
2023-05-23T12:42:11.979Z,62.40
2023-05-23T12:44:53.599Z,63.60
2023-05-23T12:47:28.573Z,63.20
2023-05-23T12:53:47.086Z,64.20
2023-05-23T13:04:37.130Z,64.60
2023-05-23T13:10:24.425Z,64.40
2023-05-23T13:12:54.443Z,64.80
2023-05-23T13:18:44.516Z,64.90
2023-05-23T13:24:24.532Z,65.10
2023-05-23T13:27:01.464Z,66.00
2023-05-23T13:29:45.259Z,66.30
2023-05-23T13:32:26.642Z,66.50
2023-05-23T13:38:33.863Z,67.10
2023-05-23T13:41:06.391Z,67.20
2023-05-23T13:43:52.628Z,67.60
2023-05-23T13:46:40.687Z,68.10
2023-05-23T13:49:32.847Z,68.60
2023-05-23T13:52:27.353Z,68.20
2023-05-23T13:55:23.071Z,68.90
2023-05-23T13:58:12.811Z,68.90
2023-05-23T14:00:42.591Z,68.30
2023-05-23T14:03:26.189Z,68.80
2023-05-23T14:06:13.766Z,69.30
2023-05-23T14:08:49.754Z,69.40
2023-05-23T14:11:19.171Z,69.20
2023-05-23T14:13:48.086Z,70.00
2023-05-23T14:16:19.295Z,70.00
2023-05-23T14:18:59.780Z,70.20
2023-05-23T14:21:48.859Z,70.50
2023-05-23T14:24:28.460Z,70.80
2023-05-23T14:27:04.022Z,70.80
2023-05-23T14:29:39.755Z,70.30
2023-05-23T14:32:11.407Z,70.00
2023-05-23T14:34:47.400Z,70.20
2023-05-23T14:37:24.380Z,70.40
2023-05-23T14:39:53.181Z,70.30
2023-05-23T14:42:24.545Z,70.10
2023-05-23T14:44:54.197Z,70.60
2023-05-23T14:47:39.439Z,70.50
2023-05-23T14:50:16.125Z,70.60
2023-05-23T14:52:49.534Z,70.70
2023-05-23T14:55:23.045Z,71.50
2023-05-23T14:57:51.744Z,71.20
2023-05-23T15:00:31.210Z,71.50
2023-05-23T15:03:02.174Z,71.50
2023-05-23T15:05:40.818Z,72.30
2023-05-23T15:08:18.707Z,72.50
2023-05-23T15:10:59.294Z,72.30
2023-05-23T15:14:04.723Z,72.40
2023-05-23T15:16:52.211Z,72.30
2023-05-23T15:19:34.641Z,72.30
2023-05-23T15:22:26.202Z,72.20
2023-05-23T15:25:26.506Z,72.30
2023-05-23T15:31:32.373Z,72.10
2023-05-23T15:38:28.170Z,72.10
2023-05-23T15:41:38.504Z,72.40
2023-05-23T15:44:26.212Z,72.20
2023-05-23T15:47:18.880Z,71.70
2023-05-23T15:49:53.190Z,71.80
2023-05-23T15:52:34.678Z,72.30
2023-05-23T15:55:14.066Z,72.50
2023-05-23T15:57:45.696Z,72.30
2023-05-23T16:00:21.159Z,72.50
2023-05-23T16:03:01.029Z,72.50
2023-05-23T16:06:18.180Z,72.90
2023-05-23T16:08:54.914Z,72.60
2023-05-23T16:11:39.820Z,73.30
2023-05-23T16:14:32.129Z,73.20
2023-05-23T16:17:10.763Z,73.80
2023-05-23T16:20:12.138Z,74.80
2023-05-23T16:22:47.541Z,75.30
2023-05-23T16:30:18.759Z,76.30
2023-05-23T16:33:00.631Z,76.80
2023-05-23T16:35:29.758Z,77.20
2023-05-23T16:38:04.324Z,77.90
2023-05-23T16:40:40.302Z,78.30
2023-05-23T16:43:26.546Z,78.70
2023-05-23T16:46:05.781Z,78.80
2023-05-23T16:49:00.339Z,79.60
2023-05-23T16:51:50.933Z,79.20
2023-05-23T16:54:33.340Z,79.80
2023-05-23T16:57:07.305Z,79.60
2023-05-23T16:59:58.209Z,80.10
2023-05-23T17:02:42.241Z,80.10
2023-05-23T17:05:27.948Z,80.40
2023-05-23T17:08:04.718Z,80.60
2023-05-23T17:10:49.214Z,81.00
2023-05-23T17:13:26.618Z,81.20
2023-05-23T17:16:13.024Z,81.00
2023-05-23T17:22:13.121Z,81.70
2023-05-23T17:24:52.858Z,81.90
2023-05-23T17:27:36.117Z,81.80
2023-05-23T17:30:05.814Z,81.70
2023-05-23T17:32:35.236Z,81.90
2023-05-23T17:35:06.318Z,82.50
2023-05-23T17:37:36.319Z,82.50
2023-05-23T17:40:15.521Z,83.00
2023-05-23T17:43:13.983Z,83.20
2023-05-23T17:45:44.850Z,84.00
2023-05-23T17:48:16.963Z,83.90
2023-05-23T17:50:50.062Z,84.20
2023-05-23T17:53:27.484Z,84.50
2023-05-23T17:56:05.548Z,84.60
2023-05-23T17:58:36.163Z,85.00
2023-05-23T18:01:06.011Z,85.40
2023-05-23T18:03:35.439Z,85.20
2023-05-23T18:06:14.883Z,85.60
2023-05-23T18:09:11.284Z,85.80
2023-05-23T18:11:40.461Z,86.50
2023-05-23T18:14:10.855Z,86.80
2023-05-23T18:17:42.269Z,87.30
2023-05-23T18:20:12.084Z,86.90
2023-05-23T18:22:47.019Z,87.10
2023-05-23T18:25:23.886Z,87.70
2023-05-23T18:27:53.289Z,88.10
2023-05-23T18:30:28.351Z,88.80
2023-05-23T18:33:03.299Z,89.20
2023-05-23T18:36:00.464Z,89.70
2023-05-23T18:38:31.287Z,89.60
2023-05-23T18:41:04.987Z,90.10
2023-05-23T18:43:43.327Z,90.20
2023-05-23T18:49:16.720Z,90.50
2023-05-23T18:52:05.851Z,90.90
2023-05-23T18:54:44.619Z,91.40
2023-05-23T18:57:25.805Z,91.40
2023-05-23T18:59:57.255Z,91.80
2023-05-23T19:02:41.627Z,91.90
2023-05-23T19:05:19.039Z,92.10
2023-05-23T19:08:04.251Z,92.20
2023-05-23T19:11:11.749Z,92.40
2023-05-23T19:13:45.301Z,92.60
2023-05-23T19:16:23.582Z,92.90
2023-05-23T19:18:59.319Z,92.90
2023-05-23T19:21:32.944Z,93.20
2023-05-23T19:24:16.029Z,93.20
2023-05-23T19:45:11.748Z,93.50
2023-05-23T20:10:39.653Z,93.00
2023-05-23T20:13:14.099Z,92.90
2023-05-23T20:15:46.111Z,93.00
2023-05-23T20:18:14.964Z,92.90
2023-05-23T20:20:43.575Z,92.80
2023-05-23T20:23:11.864Z,93.00
2023-05-23T20:25:43.791Z,92.80
2023-05-23T20:28:12.019Z,92.50
2023-05-23T20:30:40.384Z,92.40
2023-05-23T20:33:34.375Z,91.90
2023-05-23T20:36:03.110Z,91.60
2023-05-23T20:38:31.382Z,91.50
2023-05-23T20:41:02.902Z,91.30
2023-05-23T20:43:37.352Z,91.10
2023-05-23T20:46:06.639Z,90.70
2023-05-23T20:48:37.339Z,90.40
2023-05-23T20:51:05.942Z,90.40
2023-05-23T20:53:40.191Z,90.20
2023-05-23T20:56:14.551Z,90.20
2023-05-23T20:58:45.723Z,90.00
2023-05-23T21:01:16.829Z,89.50
2023-05-23T21:03:47.340Z,89.20
2023-05-23T21:09:18.760Z,88.60
2023-05-23T21:11:53.202Z,88.20
2023-05-23T21:14:21.366Z,87.90
2023-05-23T21:16:52.035Z,87.50
2023-05-23T21:19:20.326Z,87.40
2023-05-23T21:21:50.998Z,87.10
2023-05-23T21:24:20.406Z,86.80
2023-05-23T21:26:50.222Z,86.50
2023-05-23T21:29:20.761Z,86.40
2023-05-23T21:31:49.020Z,86.30
2023-05-23T21:34:23.751Z,85.80
2023-05-23T21:36:54.710Z,85.40
2023-05-23T21:39:22.829Z,85.20
2023-05-23T21:41:52.446Z,84.80
2023-05-23T21:44:20.842Z,84.60
2023-05-23T21:46:50.968Z,84.70
2023-05-23T21:49:19.275Z,84.60
2023-05-23T21:51:47.589Z,85.10
2023-05-23T21:54:15.884Z,84.30
2023-05-23T21:56:44.071Z,84.10
2023-05-23T21:59:13.618Z,84.00
2023-05-23T22:01:42.018Z,83.60
2023-05-23T22:04:10.497Z,83.50
2023-05-23T22:06:38.774Z,83.60
2023-05-23T22:09:10.121Z,83.20
2023-05-23T22:11:41.004Z,83.00
2023-05-23T22:14:15.667Z,82.70
2023-05-23T22:16:46.463Z,82.50
2023-05-23T22:19:18.007Z,82.30
2023-05-23T22:21:48.626Z,82.30
2023-05-23T22:24:17.909Z,82.30
2023-05-23T22:26:46.248Z,82.10
2023-05-23T22:29:14.517Z,82.00
2023-05-23T22:31:44.147Z,82.00
2023-05-23T22:34:12.414Z,81.70
2023-05-23T22:36:40.936Z,81.70
2023-05-23T22:39:09.648Z,81.70
2023-05-23T22:41:37.868Z,81.50
2023-05-23T22:44:06.219Z,81.50
2023-05-23T22:46:34.480Z,81.20
2023-05-23T22:49:04.230Z,81.00
2023-05-23T22:51:36.456Z,80.80
2023-05-23T22:54:05.684Z,80.90
2023-05-23T22:56:33.904Z,80.70
2023-05-23T22:59:04.237Z,80.60
2023-05-23T23:01:35.063Z,80.30
2023-05-23T23:04:04.581Z,80.00
2023-05-23T23:06:33.998Z,79.60
2023-05-23T23:09:04.999Z,79.30
2023-05-23T23:11:33.275Z,79.00
2023-05-23T23:14:02.123Z,78.80
2023-05-23T23:16:32.855Z,78.60
2023-05-23T23:19:02.541Z,78.00
2023-05-23T23:21:33.021Z,77.70
2023-05-23T23:24:01.383Z,77.40
2023-05-23T23:26:31.950Z,77.20
2023-05-23T23:29:03.282Z,77.00
2023-05-23T23:31:34.197Z,77.00
2023-05-23T23:34:05.298Z,76.80
2023-05-23T23:36:34.942Z,76.60
2023-05-23T23:39:03.156Z,77.40
2023-05-23T23:41:33.505Z,76.50
2023-05-23T23:44:02.021Z,76.60
2023-05-23T23:46:30.884Z,76.70
2023-05-23T23:48:59.149Z,76.50
2023-05-23T23:51:27.417Z,76.50
2023-05-23T23:53:57.487Z,76.50
2023-05-23T23:56:26.159Z,76.50
2023-05-23T23:58:54.487Z,76.50
